createdAt,value
2023-03-21T00:01:07.492Z,16.80
2023-03-21T00:03:36.432Z,19.90
2023-03-21T00:06:09.267Z,17.90
2023-03-21T00:08:39.865Z,19.20
2023-03-21T00:11:10.714Z,17.90
2023-03-21T00:13:42.089Z,18.20
2023-03-21T00:16:21.391Z,17.90
2023-03-21T00:18:58.050Z,17.20
2023-03-21T00:22:03.607Z,18.20
2023-03-21T00:24:22.604Z,19.20
2023-03-21T00:26:51.555Z,19.50
2023-03-21T00:29:20.584Z,17.40
2023-03-21T00:31:49.712Z,19.40
2023-03-21T00:34:26.719Z,19.50
2023-03-21T00:37:06.974Z,16.50
2023-03-21T00:39:36.154Z,18.80
2023-03-21T00:42:05.593Z,18.30
2023-03-21T00:44:36.566Z,17.80
2023-03-21T00:47:07.755Z,16.80
2023-03-21T00:49:38.202Z,17.20
2023-03-21T00:52:20.136Z,17.20
2023-03-21T00:54:53.553Z,17.70
2023-03-21T00:57:37.553Z,17.30
2023-03-21T01:00:10.214Z,16.50
2023-03-21T01:03:02.559Z,16.20
2023-03-21T01:05:53.662Z,17.00
2023-03-21T01:08:28.211Z,15.70
2023-03-21T01:11:04.194Z,18.10
2023-03-21T01:13:36.291Z,17.10
2023-03-21T01:16:08.170Z,17.80
2023-03-21T01:18:39.507Z,18.60
2023-03-21T01:21:11.301Z,17.60
2023-03-21T01:23:42.153Z,18.60
2023-03-21T01:26:12.711Z,20.10
2023-03-21T01:28:43.357Z,18.60
2023-03-21T01:31:24.331Z,18.60
2023-03-21T01:33:53.307Z,19.40
2023-03-21T01:36:25.537Z,18.20
2023-03-21T01:38:55.217Z,18.90
2023-03-21T01:41:42.048Z,19.20
2023-03-21T01:44:17.012Z,17.70
2023-03-21T01:46:57.385Z,20.50
2023-03-21T01:49:38.939Z,19.30
2023-03-21T01:52:20.986Z,19.60
2023-03-21T01:54:57.565Z,18.40
2023-03-21T01:57:40.396Z,18.30
2023-03-21T02:00:15.591Z,20.70
2023-03-21T02:02:52.281Z,20.00
2023-03-21T02:05:28.423Z,19.40
2023-03-21T02:07:57.690Z,18.10
2023-03-21T02:10:27.344Z,19.60
2023-03-21T02:13:07.723Z,18.50
2023-03-21T02:15:38.596Z,19.20
2023-03-21T02:18:15.557Z,18.40
2023-03-21T02:21:10.536Z,17.80
2023-03-21T02:23:58.696Z,18.50
2023-03-21T02:26:57.962Z,17.50
2023-03-21T02:29:55.424Z,17.30
2023-03-21T02:32:38.096Z,18.40
2023-03-21T02:35:25.321Z,17.80
2023-03-21T02:38:00.761Z,16.70
2023-03-21T02:40:36.773Z,19.00
2023-03-21T02:43:22.598Z,17.70
2023-03-21T02:45:57.336Z,18.60
2023-03-21T02:48:44.834Z,19.60
2023-03-21T02:51:23.264Z,18.40
2023-03-21T02:54:23.772Z,19.10
2023-03-21T02:56:50.117Z,19.20
2023-03-21T02:59:21.471Z,19.60
2023-03-21T03:01:52.721Z,19.20
2023-03-21T03:04:23.868Z,19.90
2023-03-21T03:07:08.598Z,20.10
2023-03-21T03:09:49.242Z,20.80
2023-03-21T03:12:28.459Z,18.70
2023-03-21T03:15:06.168Z,17.70
2023-03-21T03:17:45.772Z,15.90
2023-03-21T03:20:24.737Z,15.90
2023-03-21T03:23:00.733Z,15.80
2023-03-21T03:25:43.074Z,16.20
2023-03-21T03:28:15.445Z,16.60
2023-03-21T03:31:00.917Z,16.80
2023-03-21T03:33:38.628Z,17.20
2023-03-21T03:36:28.370Z,17.20
2023-03-21T03:39:00.855Z,16.10
2023-03-21T03:41:33.160Z,16.00
2023-03-21T03:44:15.283Z,16.40
2023-03-21T03:46:51.886Z,16.30
2023-03-21T03:49:25.604Z,16.60
2023-03-21T03:51:59.706Z,17.10
2023-03-21T03:54:33.785Z,17.10
2023-03-21T03:57:03.098Z,17.40
2023-03-21T03:59:33.924Z,16.70
2023-03-21T04:02:03.208Z,18.10
2023-03-21T04:04:32.103Z,17.80
2023-03-21T04:07:03.150Z,16.90
2023-03-21T04:09:43.612Z,18.70
2023-03-21T04:12:12.984Z,17.40
2023-03-21T04:14:47.196Z,17.00
2023-03-21T04:17:16.978Z,18.70
2023-03-21T04:19:46.488Z,17.10
2023-03-21T04:22:16.780Z,18.20
2023-03-21T04:24:45.742Z,18.20
2023-03-21T04:27:14.662Z,17.80
2023-03-21T04:29:53.150Z,18.30
2023-03-21T04:32:35.855Z,18.90
2023-03-21T04:35:21.095Z,18.00
2023-03-21T04:38:02.983Z,18.20
2023-03-21T04:40:32.006Z,16.90
2023-03-21T04:43:01.415Z,17.80
2023-03-21T04:45:30.567Z,17.80
2023-03-21T04:47:59.559Z,18.30
2023-03-21T04:50:28.665Z,18.10
2023-03-21T04:52:57.562Z,19.00
2023-03-21T04:55:29.114Z,18.40
2023-03-21T04:57:58.178Z,19.10
2023-03-21T05:00:27.227Z,20.30
2023-03-21T05:02:57.377Z,19.00
2023-03-21T05:05:26.909Z,19.60
2023-03-21T05:07:55.917Z,18.60
2023-03-21T05:10:25.026Z,18.10
2023-03-21T05:12:54.024Z,18.70
2023-03-21T05:15:23.183Z,18.30
2023-03-21T05:17:52.353Z,18.70
2023-03-21T05:20:21.511Z,18.20
2023-03-21T05:22:51.544Z,19.20
2023-03-21T05:25:20.871Z,21.00
2023-03-21T05:27:53.723Z,21.60
2023-03-21T05:30:23.015Z,21.20
2023-03-21T05:32:52.126Z,20.60
2023-03-21T05:35:21.296Z,19.50
2023-03-21T05:37:50.246Z,18.50
2023-03-21T05:40:19.438Z,19.00
2023-03-21T05:42:48.629Z,19.70
2023-03-21T05:45:17.757Z,19.30
2023-03-21T05:47:46.804Z,20.60
2023-03-21T05:50:15.704Z,18.50
2023-03-21T05:52:44.637Z,18.60
2023-03-21T05:55:13.461Z,17.40
2023-03-21T05:57:42.498Z,18.10
2023-03-21T06:00:13.918Z,19.00
2023-03-21T06:02:43.049Z,16.50
2023-03-21T06:05:12.548Z,17.10
2023-03-21T06:07:41.433Z,15.90
2023-03-21T06:10:12.360Z,17.00
2023-03-21T06:12:42.729Z,16.20
2023-03-21T06:15:13.456Z,17.30
2023-03-21T06:17:42.477Z,16.60
2023-03-21T06:20:13.400Z,15.30
2023-03-21T06:22:42.558Z,21.40
2023-03-21T06:25:11.767Z,26.00
2023-03-21T06:27:40.955Z,18.10
2023-03-21T06:30:12.534Z,22.40
2023-03-21T06:32:41.606Z,22.10
2023-03-21T06:35:11.181Z,19.90
2023-03-21T06:37:40.364Z,19.70
2023-03-21T06:40:11.657Z,21.00
2023-03-21T06:42:40.833Z,21.30
2023-03-21T06:45:11.434Z,18.00
2023-03-21T06:47:40.567Z,18.50
2023-03-21T06:50:11.761Z,15.90
2023-03-21T06:52:40.656Z,17.50
2023-03-21T06:55:10.812Z,17.80
2023-03-21T06:57:39.810Z,19.10
2023-03-21T07:00:12.835Z,17.90
2023-03-21T07:02:41.748Z,19.50
2023-03-21T07:05:11.467Z,20.50
2023-03-21T07:07:40.793Z,20.00
2023-03-21T07:10:12.028Z,17.80
2023-03-21T07:12:40.927Z,17.60
2023-03-21T07:15:12.023Z,17.10
2023-03-21T07:17:41.066Z,18.40
2023-03-21T07:20:13.089Z,16.60
2023-03-21T07:22:42.143Z,18.00
2023-03-21T07:25:12.141Z,17.90
2023-03-21T07:27:42.094Z,17.00
2023-03-21T07:30:13.586Z,17.40
2023-03-21T07:32:42.938Z,18.60
2023-03-21T07:35:15.730Z,17.40
2023-03-21T07:37:45.381Z,20.60
2023-03-21T07:40:15.984Z,18.00
2023-03-21T07:42:45.011Z,17.70
2023-03-21T07:45:15.543Z,18.00
2023-03-21T07:47:44.878Z,17.50
2023-03-21T07:50:14.017Z,18.50
2023-03-21T07:52:43.143Z,21.70
2023-03-21T07:55:12.750Z,19.90
2023-03-21T07:57:41.780Z,25.90
2023-03-21T08:00:13.561Z,23.90
2023-03-21T08:02:42.627Z,22.90
2023-03-21T08:05:11.976Z,20.90
2023-03-21T08:07:40.954Z,24.00
2023-03-21T08:10:12.472Z,20.70
2023-03-21T08:12:41.635Z,26.20
2023-03-21T08:15:12.815Z,22.50
2023-03-21T08:17:45.206Z,21.80
2023-03-21T08:20:16.666Z,20.40
2023-03-21T08:22:45.705Z,20.50
2023-03-21T08:25:17.512Z,16.00
2023-03-21T08:27:48.026Z,15.80
2023-03-21T08:30:19.779Z,16.50
2023-03-21T08:32:49.065Z,17.10
2023-03-21T08:35:20.036Z,16.00
2023-03-21T08:37:49.235Z,16.00
2023-03-21T08:40:20.316Z,15.30
2023-03-21T08:42:49.324Z,16.10
2023-03-21T08:45:19.151Z,16.40
2023-03-21T08:47:48.288Z,15.60
2023-03-21T08:50:19.751Z,15.00
2023-03-21T08:52:49.562Z,15.60
2023-03-21T08:55:19.781Z,15.90
2023-03-21T08:57:48.988Z,15.30
2023-03-21T09:00:20.263Z,16.70
2023-03-21T09:02:52.274Z,16.10
2023-03-21T09:05:22.580Z,15.30
2023-03-21T09:07:52.531Z,16.70
2023-03-21T09:10:23.559Z,17.10
2023-03-21T09:12:54.528Z,16.90
2023-03-21T09:15:24.693Z,16.20
2023-03-21T09:17:55.652Z,17.60
2023-03-21T09:20:30.156Z,11.10
2023-03-21T09:22:59.601Z,6.90
2023-03-21T09:25:30.652Z,5.30
2023-03-21T09:27:59.947Z,4.90
2023-03-21T09:30:29.852Z,4.80
2023-03-21T09:33:00.450Z,5.20
2023-03-21T09:35:30.640Z,4.60
2023-03-21T09:38:00.216Z,4.60
2023-03-21T09:40:47.006Z,4.00
2023-03-21T09:43:32.816Z,4.40
2023-03-21T09:46:09.468Z,4.40
2023-03-21T09:48:54.381Z,4.20
2023-03-21T09:51:29.877Z,4.60
2023-03-21T09:54:04.782Z,4.20
2023-03-21T09:56:34.751Z,4.00
2023-03-21T09:59:06.835Z,3.70
2023-03-21T10:01:41.809Z,4.30
2023-03-21T10:04:16.469Z,3.90
2023-03-21T10:09:21.250Z,3.70
2023-03-21T10:11:54.507Z,3.70
2023-03-21T10:14:29.887Z,4.30
2023-03-21T10:17:01.485Z,4.60
2023-03-21T10:19:30.756Z,4.60
2023-03-21T10:22:02.678Z,5.60
2023-03-21T10:24:35.314Z,5.90
2023-03-21T10:27:05.505Z,6.70
2023-03-21T10:29:42.124Z,4.80
2023-03-21T10:32:13.759Z,4.90
2023-03-21T10:34:45.793Z,5.00
2023-03-21T10:37:16.974Z,4.20
2023-03-21T10:39:49.326Z,3.50
2023-03-21T10:42:23.493Z,3.10
2023-03-21T10:44:57.002Z,3.10
2023-03-21T10:47:28.183Z,2.70
2023-03-21T10:50:10.093Z,3.50
2023-03-21T10:52:45.596Z,3.00
2023-03-21T10:55:23.205Z,3.50
2023-03-21T10:57:59.785Z,4.00
2023-03-21T11:00:36.266Z,3.40
2023-03-21T11:03:07.041Z,4.20
2023-03-21T11:05:39.028Z,3.90
2023-03-21T11:08:13.212Z,4.30
2023-03-21T11:10:54.490Z,5.10
2023-03-21T11:13:33.094Z,5.20
2023-03-21T11:16:08.516Z,4.60
2023-03-21T11:18:42.406Z,5.30
2023-03-21T11:21:14.474Z,5.20
2023-03-21T11:23:47.585Z,6.70
2023-03-21T11:26:23.872Z,6.50
2023-03-21T11:28:54.194Z,6.50
2023-03-21T11:31:38.288Z,6.20
2023-03-21T11:34:09.838Z,5.80
2023-03-21T11:36:39.600Z,6.30
2023-03-21T11:39:33.216Z,6.10
2023-03-21T11:42:02.637Z,4.80
2023-03-21T11:44:35.282Z,5.10
2023-03-21T11:47:04.394Z,4.80
2023-03-21T11:49:33.416Z,7.20
2023-03-21T11:52:21.337Z,6.10
2023-03-21T11:55:23.584Z,5.50
2023-03-21T11:58:13.952Z,6.00
2023-03-21T12:00:54.363Z,5.30
2023-03-21T12:03:47.420Z,6.00
2023-03-21T12:06:25.557Z,6.00
2023-03-21T12:09:06.233Z,6.40
2023-03-21T12:11:49.070Z,6.20
2023-03-21T12:14:28.065Z,6.80
2023-03-21T12:17:10.768Z,6.80
2023-03-21T12:20:01.616Z,7.00
2023-03-21T12:22:39.962Z,7.70
2023-03-21T12:25:14.057Z,7.00
2023-03-21T12:27:52.166Z,6.40
2023-03-21T12:30:39.539Z,6.80
2023-03-21T12:33:25.134Z,7.00
2023-03-21T12:36:10.741Z,6.60
2023-03-21T12:38:44.503Z,7.10
2023-03-21T12:41:27.112Z,6.50
2023-03-21T12:44:03.188Z,6.70
2023-03-21T12:46:36.780Z,6.70
2023-03-21T12:49:14.331Z,7.10
2023-03-21T12:51:47.862Z,7.20
2023-03-21T12:54:25.671Z,6.20
2023-03-21T12:56:59.571Z,6.50
2023-03-21T12:59:36.621Z,6.20
2023-03-21T13:02:19.041Z,7.10
2023-03-21T13:04:59.497Z,6.50
2023-03-21T13:07:33.264Z,5.90
2023-03-21T13:10:05.182Z,6.40
2023-03-21T13:12:48.761Z,6.50
2023-03-21T13:15:44.482Z,5.60
2023-03-21T13:18:21.194Z,6.50
2023-03-21T13:20:53.833Z,7.00
2023-03-21T13:23:25.501Z,7.00
2023-03-21T13:25:57.920Z,7.40
2023-03-21T13:28:31.665Z,7.70
2023-03-21T13:31:21.827Z,7.40
2023-03-21T13:33:53.537Z,7.30
2023-03-21T13:36:26.928Z,6.40
2023-03-21T13:39:01.818Z,7.30
2023-03-21T13:41:35.466Z,7.00
2023-03-21T13:44:23.463Z,6.80
2023-03-21T13:47:02.497Z,7.30
2023-03-21T13:49:34.872Z,6.90
2023-03-21T13:52:27.329Z,7.00
2023-03-21T13:54:57.371Z,6.50
2023-03-21T13:57:39.507Z,6.10
2023-03-21T14:00:29.429Z,6.90
2023-03-21T14:03:05.982Z,8.20
2023-03-21T14:05:36.825Z,7.20
2023-03-21T14:08:24.752Z,6.60
2023-03-21T14:11:06.727Z,7.40
2023-03-21T14:13:48.343Z,6.70
2023-03-21T14:16:21.966Z,6.30
2023-03-21T14:18:56.019Z,5.90
2023-03-21T14:21:29.073Z,6.50
2023-03-21T14:24:02.742Z,6.20
2023-03-21T14:26:34.657Z,6.40
2023-03-21T14:29:09.583Z,5.90
2023-03-21T14:31:47.430Z,6.20
2023-03-21T14:34:17.990Z,6.30
2023-03-21T14:36:56.893Z,7.30
2023-03-21T14:39:30.203Z,7.10
2023-03-21T14:42:05.560Z,6.80
2023-03-21T14:44:53.990Z,6.60
2023-03-21T14:47:27.066Z,7.10
2023-03-21T14:49:56.714Z,6.40
2023-03-21T14:52:30.751Z,7.10
2023-03-21T14:55:01.936Z,6.90
2023-03-21T14:57:33.459Z,7.10
2023-03-21T15:00:11.930Z,6.90
2023-03-21T15:02:43.507Z,7.10
2023-03-21T15:05:19.749Z,6.70
2023-03-21T15:07:57.188Z,7.30
2023-03-21T15:10:30.221Z,7.30
2023-03-21T15:13:01.830Z,6.70
2023-03-21T15:15:32.340Z,6.80
2023-03-21T15:18:07.881Z,6.50
2023-03-21T15:20:39.916Z,6.60
2023-03-21T15:23:15.690Z,6.30
2023-03-21T15:25:45.691Z,7.60
2023-03-21T15:28:17.006Z,7.20
2023-03-21T15:30:51.431Z,6.40
2023-03-21T15:33:21.327Z,6.60
2023-03-21T15:35:55.103Z,6.90
2023-03-21T15:38:30.225Z,7.30
2023-03-21T15:41:25.951Z,7.80
2023-03-21T15:44:05.466Z,7.20
2023-03-21T15:46:42.391Z,7.30
2023-03-21T15:49:24.885Z,8.50
2023-03-21T15:51:57.251Z,7.30
2023-03-21T15:54:29.756Z,7.70
2023-03-21T15:57:04.138Z,8.70
2023-03-21T15:59:36.498Z,10.00
2023-03-21T16:02:11.321Z,9.20
2023-03-21T16:04:58.397Z,7.80
2023-03-21T16:07:27.981Z,8.40
2023-03-21T16:10:01.723Z,9.20
2023-03-21T16:12:30.772Z,8.10
2023-03-21T16:14:59.646Z,8.70
2023-03-21T16:17:36.308Z,10.00
2023-03-21T16:20:14.069Z,12.90
2023-03-21T16:22:43.108Z,13.00
2023-03-21T16:25:12.338Z,12.60
2023-03-21T16:27:42.141Z,11.80
2023-03-21T16:30:15.188Z,10.70
2023-03-21T16:32:44.028Z,15.80
2023-03-21T16:35:13.583Z,15.20
2023-03-21T16:37:43.062Z,17.00
2023-03-21T16:40:23.270Z,15.60
2023-03-21T16:42:52.300Z,17.40
2023-03-21T16:45:21.380Z,22.40
2023-03-21T16:47:51.375Z,24.50
2023-03-21T16:50:31.224Z,22.50
2023-03-21T16:53:00.773Z,22.90
2023-03-21T16:55:32.650Z,24.20
2023-03-21T16:58:02.551Z,23.60
2023-03-21T17:00:32.543Z,23.20
2023-03-21T17:03:03.349Z,25.20
2023-03-21T17:05:32.435Z,26.90
2023-03-21T17:08:02.597Z,29.90
2023-03-21T17:10:34.163Z,27.50
2023-03-21T17:13:03.537Z,33.90
2023-03-21T17:15:33.003Z,30.30
2023-03-21T17:18:02.287Z,24.70
2023-03-21T17:20:33.909Z,23.70
2023-03-21T17:23:03.184Z,23.70
2023-03-21T17:25:32.474Z,23.70
2023-03-21T17:28:02.205Z,24.90
2023-03-21T17:30:37.444Z,23.30
2023-03-21T17:33:07.728Z,29.20
2023-03-21T17:35:38.505Z,31.70
2023-03-21T17:38:12.947Z,28.60
2023-03-21T17:40:43.068Z,27.20
2023-03-21T17:43:17.840Z,24.10
2023-03-21T17:45:49.610Z,25.40
2023-03-21T17:48:21.704Z,24.40
2023-03-21T17:50:50.941Z,23.30
2023-03-21T17:53:20.409Z,23.00
2023-03-21T17:55:51.894Z,24.00
2023-03-21T17:58:22.142Z,23.30
2023-03-21T18:00:51.003Z,23.20
2023-03-21T18:03:22.967Z,25.60
2023-03-21T18:05:55.493Z,26.30
2023-03-21T18:08:24.545Z,30.10
2023-03-21T18:10:54.760Z,36.80
2023-03-21T18:13:24.009Z,38.50
2023-03-21T18:15:53.729Z,40.40
2023-03-21T18:18:22.694Z,42.70
2023-03-21T18:20:54.467Z,40.10
2023-03-21T18:23:24.173Z,37.50
2023-03-21T18:25:57.991Z,40.00
2023-03-21T18:28:28.025Z,46.70
2023-03-21T18:31:12.683Z,53.60
2023-03-21T18:33:48.097Z,68.50
2023-03-21T18:36:25.357Z,81.80
2023-03-21T18:39:05.184Z,78.70
2023-03-21T18:41:36.488Z,68.30
2023-03-21T18:44:23.626Z,66.00
2023-03-21T18:46:55.425Z,60.70
2023-03-21T18:50:05.857Z,61.30
2023-03-21T18:52:18.984Z,59.10
2023-03-21T18:54:49.470Z,61.90
2023-03-21T18:57:38.698Z,67.50
2023-03-21T19:00:13.891Z,65.00
2023-03-21T19:03:13.066Z,63.90
2023-03-21T19:05:50.981Z,61.80
2023-03-21T19:08:23.797Z,58.30
2023-03-21T19:10:59.574Z,52.00
2023-03-21T19:13:33.668Z,52.70
2023-03-21T19:16:05.669Z,53.40
2023-03-21T19:18:53.430Z,53.50
2023-03-21T19:21:27.724Z,55.00
2023-03-21T19:24:29.316Z,58.90
2023-03-21T19:26:58.658Z,70.70
2023-03-21T19:29:29.752Z,62.00
2023-03-21T19:32:04.457Z,63.50
2023-03-21T19:37:05.958Z,58.00
2023-03-21T19:39:39.190Z,59.00
2023-03-21T19:42:22.712Z,47.90
2023-03-21T19:44:54.358Z,43.50
2023-03-21T19:47:32.828Z,43.30
2023-03-21T19:50:43.960Z,41.70
2023-03-21T19:52:59.058Z,41.30
2023-03-21T19:55:35.402Z,42.70
2023-03-21T19:58:09.375Z,49.70
2023-03-21T20:00:41.146Z,50.00
2023-03-21T20:03:22.443Z,49.40
2023-03-21T20:06:03.318Z,46.70
2023-03-21T20:08:58.031Z,44.90
2023-03-21T20:11:28.875Z,44.80
2023-03-21T20:14:03.485Z,44.50
2023-03-21T20:19:09.232Z,41.60
2023-03-21T20:21:48.528Z,41.30
2023-03-21T20:24:27.282Z,38.10
2023-03-21T20:27:00.331Z,38.80
2023-03-21T20:32:21.657Z,34.80
2023-03-21T20:35:02.645Z,32.80
2023-03-21T20:37:45.992Z,32.70
2023-03-21T20:40:18.375Z,33.10
2023-03-21T20:42:50.691Z,36.60
2023-03-21T20:45:22.040Z,33.40
2023-03-21T20:47:58.103Z,37.00
2023-03-21T20:50:33.083Z,35.70
2023-03-21T20:53:07.279Z,37.80
2023-03-21T20:55:39.932Z,35.50
2023-03-21T20:58:36.738Z,39.90
2023-03-21T21:01:04.874Z,38.40
2023-03-21T21:03:39.261Z,39.80
2023-03-21T21:06:15.126Z,38.40
2023-03-21T21:08:47.703Z,41.60
2023-03-21T21:12:04.742Z,43.90
2023-03-21T21:14:08.605Z,45.60
2023-03-21T21:16:41.329Z,49.60
2023-03-21T21:19:10.357Z,46.40
2023-03-21T21:21:39.478Z,47.80
2023-03-21T21:24:10.983Z,43.00
2023-03-21T21:26:45.901Z,44.30
2023-03-21T21:29:16.776Z,40.40
2023-03-21T21:31:48.483Z,40.80
2023-03-21T21:34:18.427Z,35.80
2023-03-21T21:36:47.651Z,34.90
2023-03-21T21:39:16.602Z,34.30
2023-03-21T21:41:45.571Z,35.90
2023-03-21T21:44:14.804Z,40.40
2023-03-21T21:46:43.631Z,38.60
2023-03-21T21:49:12.415Z,38.20
2023-03-21T21:51:41.466Z,36.40
2023-03-21T21:54:10.832Z,39.30
2023-03-21T21:56:39.602Z,39.90
2023-03-21T21:59:08.615Z,36.80
2023-03-21T22:01:38.227Z,37.60
2023-03-21T22:04:07.903Z,35.20
2023-03-21T22:06:36.738Z,37.80
2023-03-21T22:09:06.570Z,36.10
2023-03-21T22:11:35.485Z,36.80
2023-03-21T22:14:04.474Z,38.20
2023-03-21T22:16:33.547Z,35.20
2023-03-21T22:19:02.845Z,36.10
2023-03-21T22:21:31.680Z,38.90
2023-03-21T22:24:01.092Z,43.60
2023-03-21T22:26:30.093Z,42.40
2023-03-21T22:28:59.561Z,40.90
2023-03-21T22:31:28.600Z,44.60
2023-03-21T22:33:57.536Z,42.70
2023-03-21T22:36:26.778Z,42.10
2023-03-21T22:38:56.042Z,39.00
2023-03-21T22:41:24.965Z,41.60
2023-03-21T22:43:53.963Z,41.20
2023-03-21T22:46:23.163Z,37.60
2023-03-21T22:48:52.028Z,39.20
2023-03-21T22:51:21.473Z,36.90
2023-03-21T22:53:50.344Z,34.10
2023-03-21T22:56:19.191Z,34.20
2023-03-21T22:58:48.147Z,34.80
2023-03-21T23:01:17.034Z,33.10
2023-03-21T23:03:46.022Z,32.10
2023-03-21T23:06:14.974Z,34.40
2023-03-21T23:08:43.826Z,33.20
2023-03-21T23:11:12.791Z,34.40
2023-03-21T23:13:41.719Z,31.60
2023-03-21T23:16:11.319Z,27.30
2023-03-21T23:18:40.364Z,27.50
2023-03-21T23:21:12.774Z,28.10
2023-03-21T23:23:43.448Z,31.40
2023-03-21T23:26:12.818Z,29.00
2023-03-21T23:28:42.103Z,28.50
2023-03-21T23:31:13.254Z,26.80
2023-03-21T23:33:42.435Z,27.70
2023-03-21T23:36:14.219Z,27.90
2023-03-21T23:38:43.978Z,29.60
2023-03-21T23:41:14.775Z,31.70
2023-03-21T23:43:44.103Z,28.90
2023-03-21T23:46:13.871Z,28.60
2023-03-21T23:48:43.461Z,30.10
2023-03-21T23:51:14.468Z,30.90
2023-03-21T23:53:44.532Z,27.10
2023-03-21T23:56:15.692Z,26.80
2023-03-21T23:58:44.615Z,25.90
